sensor_id;sensor_type;location;lat;lon;timestamp;temperature;humidity
41220;DHT22;26951;47.338;9.196;2023-06-14T00:02:00;10.40;40.70
41220;DHT22;26951;47.338;9.196;2023-06-14T00:04:44;10.30;40.30
41220;DHT22;26951;47.338;9.196;2023-06-14T00:07:36;10.40;41.20
41220;DHT22;26951;47.338;9.196;2023-06-14T00:10:21;10.30;40.40
41220;DHT22;26951;47.338;9.196;2023-06-14T00:13:05;10.20;40.00
41220;DHT22;26951;47.338;9.196;2023-06-14T00:15:51;10.10;40.30
41220;DHT22;26951;47.338;9.196;2023-06-14T00:18:38;10.10;39.90
41220;DHT22;26951;47.338;9.196;2023-06-14T00:21:23;10.10;39.80
41220;DHT22;26951;47.338;9.196;2023-06-14T00:24:07;10.10;40.10
41220;DHT22;26951;47.338;9.196;2023-06-14T00:26:51;10.00;40.40
41220;DHT22;26951;47.338;9.196;2023-06-14T00:29:36;10.00;40.60
41220;DHT22;26951;47.338;9.196;2023-06-14T00:32:20;10.00;40.70
41220;DHT22;26951;47.338;9.196;2023-06-14T00:35:09;10.00;41.80
41220;DHT22;26951;47.338;9.196;2023-06-14T00:37:53;10.10;41.80
41220;DHT22;26951;47.338;9.196;2023-06-14T00:40:39;10.00;40.50
41220;DHT22;26951;47.338;9.196;2023-06-14T00:43:23;10.00;40.30
41220;DHT22;26951;47.338;9.196;2023-06-14T00:46:07;10.00;41.50
41220;DHT22;26951;47.338;9.196;2023-06-14T00:48:51;9.90;42.80
41220;DHT22;26951;47.338;9.196;2023-06-14T00:51:36;9.80;41.90
41220;DHT22;26951;47.338;9.196;2023-06-14T00:54:21;9.70;41.80
41220;DHT22;26951;47.338;9.196;2023-06-14T00:57:05;9.70;42.90
41220;DHT22;26951;47.338;9.196;2023-06-14T00:59:50;9.60;42.60
41220;DHT22;26951;47.338;9.196;2023-06-14T01:02:38;9.60;43.10
41220;DHT22;26951;47.338;9.196;2023-06-14T01:05:23;9.60;42.90
41220;DHT22;26951;47.338;9.196;2023-06-14T01:08:31;9.60;43.30
41220;DHT22;26951;47.338;9.196;2023-06-14T01:11:41;9.60;42.60
41220;DHT22;26951;47.338;9.196;2023-06-14T01:14:31;9.60;42.50
41220;DHT22;26951;47.338;9.196;2023-06-14T01:17:16;9.50;44.00
41220;DHT22;26951;47.338;9.196;2023-06-14T01:20:02;9.50;43.40
41220;DHT22;26951;47.338;9.196;2023-06-14T01:22:55;9.50;43.60
41220;DHT22;26951;47.338;9.196;2023-06-14T01:25:39;9.40;44.50
41220;DHT22;26951;47.338;9.196;2023-06-14T01:28:28;9.40;44.50
41220;DHT22;26951;47.338;9.196;2023-06-14T01:31:20;9.30;43.70
41220;DHT22;26951;47.338;9.196;2023-06-14T01:34:08;9.20;43.60
41220;DHT22;26951;47.338;9.196;2023-06-14T01:36:53;9.20;43.40
41220;DHT22;26951;47.338;9.196;2023-06-14T01:39:43;9.20;43.10
41220;DHT22;26951;47.338;9.196;2023-06-14T01:42:27;9.20;42.70
41220;DHT22;26951;47.338;9.196;2023-06-14T01:45:11;9.30;43.30
41220;DHT22;26951;47.338;9.196;2023-06-14T01:47:56;9.20;44.60
41220;DHT22;26951;47.338;9.196;2023-06-14T01:50:40;9.20;44.10
41220;DHT22;26951;47.338;9.196;2023-06-14T01:53:24;9.20;43.30
41220;DHT22;26951;47.338;9.196;2023-06-14T01:56:08;9.30;43.60
41220;DHT22;26951;47.338;9.196;2023-06-14T01:58:53;9.30;44.30
41220;DHT22;26951;47.338;9.196;2023-06-14T02:01:37;9.30;43.20
41220;DHT22;26951;47.338;9.196;2023-06-14T02:04:21;9.30;43.70
41220;DHT22;26951;47.338;9.196;2023-06-14T02:07:06;9.30;44.40
41220;DHT22;26951;47.338;9.196;2023-06-14T02:09:50;9.20;45.50
41220;DHT22;26951;47.338;9.196;2023-06-14T02:12:34;9.10;43.80
41220;DHT22;26951;47.338;9.196;2023-06-14T02:15:18;9.10;43.50
41220;DHT22;26951;47.338;9.196;2023-06-14T02:18:03;9.10;44.50
41220;DHT22;26951;47.338;9.196;2023-06-14T02:20:47;9.00;43.90
41220;DHT22;26951;47.338;9.196;2023-06-14T02:23:31;9.00;44.30
41220;DHT22;26951;47.338;9.196;2023-06-14T02:26:16;8.90;44.40
41220;DHT22;26951;47.338;9.196;2023-06-14T02:29:00;9.00;44.30
41220;DHT22;26951;47.338;9.196;2023-06-14T02:31:45;9.00;44.20
41220;DHT22;26951;47.338;9.196;2023-06-14T02:34:31;9.00;44.80
41220;DHT22;26951;47.338;9.196;2023-06-14T02:37:15;9.00;44.30
41220;DHT22;26951;47.338;9.196;2023-06-14T02:39:59;8.90;44.10
41220;DHT22;26951;47.338;9.196;2023-06-14T02:42:43;8.90;44.40
41220;DHT22;26951;47.338;9.196;2023-06-14T02:45:28;8.90;44.80
41220;DHT22;26951;47.338;9.196;2023-06-14T02:48:12;8.80;45.50
41220;DHT22;26951;47.338;9.196;2023-06-14T02:50:56;8.70;46.20
41220;DHT22;26951;47.338;9.196;2023-06-14T02:53:40;8.60;45.30
41220;DHT22;26951;47.338;9.196;2023-06-14T02:56:24;8.70;44.90
41220;DHT22;26951;47.338;9.196;2023-06-14T02:59:10;8.70;44.80
41220;DHT22;26951;47.338;9.196;2023-06-14T03:01:54;8.70;44.80
41220;DHT22;26951;47.338;9.196;2023-06-14T03:04:38;8.70;44.70
41220;DHT22;26951;47.338;9.196;2023-06-14T03:07:22;8.70;44.60
41220;DHT22;26951;47.338;9.196;2023-06-14T03:10:08;8.70;45.00
41220;DHT22;26951;47.338;9.196;2023-06-14T03:12:53;8.70;45.00
41220;DHT22;26951;47.338;9.196;2023-06-14T03:15:37;8.80;45.50
41220;DHT22;26951;47.338;9.196;2023-06-14T03:18:21;8.70;45.70
41220;DHT22;26951;47.338;9.196;2023-06-14T03:21:06;8.70;45.30
41220;DHT22;26951;47.338;9.196;2023-06-14T03:23:50;8.70;45.20
41220;DHT22;26951;47.338;9.196;2023-06-14T03:26:34;8.70;46.10
41220;DHT22;26951;47.338;9.196;2023-06-14T03:29:21;8.70;46.30
41220;DHT22;26951;47.338;9.196;2023-06-14T03:32:05;8.60;45.80
41220;DHT22;26951;47.338;9.196;2023-06-14T03:34:50;8.60;45.80
41220;DHT22;26951;47.338;9.196;2023-06-14T03:37:34;8.60;46.50
41220;DHT22;26951;47.338;9.196;2023-06-14T03:40:20;8.50;46.30
41220;DHT22;26951;47.338;9.196;2023-06-14T03:43:05;8.50;46.00
41220;DHT22;26951;47.338;9.196;2023-06-14T03:45:49;8.40;46.20
41220;DHT22;26951;47.338;9.196;2023-06-14T03:48:34;8.50;45.90
41220;DHT22;26951;47.338;9.196;2023-06-14T03:51:19;8.50;46.60
41220;DHT22;26951;47.338;9.196;2023-06-14T03:54:03;8.50;46.90
41220;DHT22;26951;47.338;9.196;2023-06-14T03:56:47;8.50;47.40
41220;DHT22;26951;47.338;9.196;2023-06-14T03:59:31;8.50;47.90
41220;DHT22;26951;47.338;9.196;2023-06-14T04:02:15;8.40;46.50
41220;DHT22;26951;47.338;9.196;2023-06-14T04:04:59;8.40;46.50
41220;DHT22;26951;47.338;9.196;2023-06-14T04:07:43;8.50;47.30
41220;DHT22;26951;47.338;9.196;2023-06-14T04:10:29;8.50;47.80
41220;DHT22;26951;47.338;9.196;2023-06-14T04:13:13;8.50;47.10
41220;DHT22;26951;47.338;9.196;2023-06-14T04:15:57;8.50;47.20
41220;DHT22;26951;47.338;9.196;2023-06-14T04:18:41;8.50;49.00
41220;DHT22;26951;47.338;9.196;2023-06-14T04:21:25;8.50;48.80
41220;DHT22;26951;47.338;9.196;2023-06-14T04:24:11;8.50;48.20
41220;DHT22;26951;47.338;9.196;2023-06-14T04:26:58;8.50;47.80
41220;DHT22;26951;47.338;9.196;2023-06-14T04:29:42;8.50;47.70
41220;DHT22;26951;47.338;9.196;2023-06-14T04:32:27;8.60;48.20
41220;DHT22;26951;47.338;9.196;2023-06-14T04:35:13;8.60;49.00
41220;DHT22;26951;47.338;9.196;2023-06-14T04:37:57;8.70;49.50
41220;DHT22;26951;47.338;9.196;2023-06-14T04:40:41;8.70;49.80
41220;DHT22;26951;47.338;9.196;2023-06-14T04:43:30;8.80;49.50
41220;DHT22;26951;47.338;9.196;2023-06-14T04:46:16;8.80;50.30
41220;DHT22;26951;47.338;9.196;2023-06-14T04:49:01;8.80;50.20
41220;DHT22;26951;47.338;9.196;2023-06-14T04:51:46;8.80;49.80
41220;DHT22;26951;47.338;9.196;2023-06-14T04:54:30;8.90;49.60
41220;DHT22;26951;47.338;9.196;2023-06-14T04:57:16;9.00;49.30
41220;DHT22;26951;47.338;9.196;2023-06-14T05:00:01;9.00;49.70
41220;DHT22;26951;47.338;9.196;2023-06-14T05:02:48;9.20;50.40
41220;DHT22;26951;47.338;9.196;2023-06-14T05:05:33;9.20;50.80
41220;DHT22;26951;47.338;9.196;2023-06-14T05:08:17;9.30;50.70
41220;DHT22;26951;47.338;9.196;2023-06-14T05:11:02;9.40;51.20
41220;DHT22;26951;47.338;9.196;2023-06-14T05:13:46;9.50;51.80
41220;DHT22;26951;47.338;9.196;2023-06-14T05:16:30;9.60;53.10
41220;DHT22;26951;47.338;9.196;2023-06-14T05:19:15;9.70;54.00
41220;DHT22;26951;47.338;9.196;2023-06-14T05:21:59;9.90;55.20
41220;DHT22;26951;47.338;9.196;2023-06-14T05:24:43;10.20;56.40
41220;DHT22;26951;47.338;9.196;2023-06-14T05:27:27;10.50;59.80
41220;DHT22;26951;47.338;9.196;2023-06-14T05:30:13;11.00;61.60
41220;DHT22;26951;47.338;9.196;2023-06-14T05:32:57;11.50;61.70
41220;DHT22;26951;47.338;9.196;2023-06-14T05:35:41;12.10;60.30
41220;DHT22;26951;47.338;9.196;2023-06-14T05:38:25;12.80;58.30
41220;DHT22;26951;47.338;9.196;2023-06-14T05:41:10;13.50;56.40
41220;DHT22;26951;47.338;9.196;2023-06-14T05:43:55;14.20;54.20
41220;DHT22;26951;47.338;9.196;2023-06-14T05:46:39;14.90;53.40
41220;DHT22;26951;47.338;9.196;2023-06-14T05:49:25;15.60;50.20
41220;DHT22;26951;47.338;9.196;2023-06-14T05:52:09;16.30;48.30
41220;DHT22;26951;47.338;9.196;2023-06-14T05:54:54;16.90;45.10
41220;DHT22;26951;47.338;9.196;2023-06-14T05:57:38;17.50;41.70
41220;DHT22;26951;47.338;9.196;2023-06-14T06:00:22;18.10;40.40
41220;DHT22;26951;47.338;9.196;2023-06-14T06:03:06;18.60;37.20
41220;DHT22;26951;47.338;9.196;2023-06-14T06:05:53;19.10;35.30
41220;DHT22;26951;47.338;9.196;2023-06-14T06:08:37;19.40;32.30
41220;DHT22;26951;47.338;9.196;2023-06-14T06:11:21;19.60;30.00
41220;DHT22;26951;47.338;9.196;2023-06-14T06:14:06;19.80;28.90
41220;DHT22;26951;47.338;9.196;2023-06-14T06:16:50;20.00;28.20
41220;DHT22;26951;47.338;9.196;2023-06-14T06:19:36;20.10;28.60
41220;DHT22;26951;47.338;9.196;2023-06-14T06:22:20;20.20;28.50
41220;DHT22;26951;47.338;9.196;2023-06-14T06:25:05;20.30;28.40
41220;DHT22;26951;47.338;9.196;2023-06-14T06:27:50;20.40;27.80
41220;DHT22;26951;47.338;9.196;2023-06-14T06:30:34;20.50;28.00
41220;DHT22;26951;47.338;9.196;2023-06-14T06:33:20;20.60;27.60
41220;DHT22;26951;47.338;9.196;2023-06-14T06:36:04;20.60;26.70
41220;DHT22;26951;47.338;9.196;2023-06-14T06:38:49;20.90;26.30
41220;DHT22;26951;47.338;9.196;2023-06-14T06:41:34;21.20;26.50
41220;DHT22;26951;47.338;9.196;2023-06-14T06:44:19;21.50;26.00
41220;DHT22;26951;47.338;9.196;2023-06-14T06:47:03;21.70;25.50
41220;DHT22;26951;47.338;9.196;2023-06-14T06:49:47;21.70;25.50
41220;DHT22;26951;47.338;9.196;2023-06-14T06:52:32;21.80;25.50
41220;DHT22;26951;47.338;9.196;2023-06-14T06:55:16;21.80;25.60
41220;DHT22;26951;47.338;9.196;2023-06-14T06:58:01;22.00;25.80
41220;DHT22;26951;47.338;9.196;2023-06-14T07:00:45;22.20;25.40
41220;DHT22;26951;47.338;9.196;2023-06-14T07:03:30;22.50;24.70
41220;DHT22;26951;47.338;9.196;2023-06-14T07:06:14;22.90;25.20
41220;DHT22;26951;47.338;9.196;2023-06-14T07:09:02;23.00;24.80
41220;DHT22;26951;47.338;9.196;2023-06-14T07:11:48;23.30;24.80
41220;DHT22;26951;47.338;9.196;2023-06-14T07:14:32;23.60;23.40
41220;DHT22;26951;47.338;9.196;2023-06-14T07:17:17;23.60;23.90
41220;DHT22;26951;47.338;9.196;2023-06-14T07:20:03;23.70;22.70
41220;DHT22;26951;47.338;9.196;2023-06-14T07:22:55;24.10;23.60
41220;DHT22;26951;47.338;9.196;2023-06-14T07:25:39;24.60;23.80
41220;DHT22;26951;47.338;9.196;2023-06-14T07:28:23;25.10;24.10
41220;DHT22;26951;47.338;9.196;2023-06-14T07:31:08;25.30;23.10
41220;DHT22;26951;47.338;9.196;2023-06-14T07:33:52;25.50;22.30
41220;DHT22;26951;47.338;9.196;2023-06-14T07:36:36;25.70;22.60
41220;DHT22;26951;47.338;9.196;2023-06-14T07:39:20;25.80;22.40
41220;DHT22;26951;47.338;9.196;2023-06-14T07:42:05;25.90;21.60
41220;DHT22;26951;47.338;9.196;2023-06-14T07:44:49;25.80;22.40
41220;DHT22;26951;47.338;9.196;2023-06-14T07:47:36;25.80;22.40
41220;DHT22;26951;47.338;9.196;2023-06-14T07:50:20;25.90;22.70
41220;DHT22;26951;47.338;9.196;2023-06-14T07:53:04;26.00;23.00
41220;DHT22;26951;47.338;9.196;2023-06-14T07:55:48;26.20;21.00
41220;DHT22;26951;47.338;9.196;2023-06-14T07:58:32;26.50;18.60
41220;DHT22;26951;47.338;9.196;2023-06-14T08:01:17;26.80;18.60
41220;DHT22;26951;47.338;9.196;2023-06-14T08:04:02;27.00;18.40
41220;DHT22;26951;47.338;9.196;2023-06-14T08:06:46;27.30;17.10
41220;DHT22;26951;47.338;9.196;2023-06-14T08:09:32;27.50;17.80
41220;DHT22;26951;47.338;9.196;2023-06-14T08:12:16;27.50;17.10
41220;DHT22;26951;47.338;9.196;2023-06-14T08:15:00;27.50;16.60
41220;DHT22;26951;47.338;9.196;2023-06-14T08:17:45;27.50;16.80
41220;DHT22;26951;47.338;9.196;2023-06-14T08:20:29;27.60;15.80
41220;DHT22;26951;47.338;9.196;2023-06-14T08:23:15;27.50;16.50
41220;DHT22;26951;47.338;9.196;2023-06-14T08:26:03;27.20;14.50
41220;DHT22;26951;47.338;9.196;2023-06-14T08:28:47;27.00;15.70
41220;DHT22;26951;47.338;9.196;2023-06-14T08:31:32;27.00;17.90
41220;DHT22;26951;47.338;9.196;2023-06-14T08:34:17;27.00;16.50
41220;DHT22;26951;47.338;9.196;2023-06-14T08:37:01;27.00;16.60
41220;DHT22;26951;47.338;9.196;2023-06-14T08:39:45;27.10;18.30
41220;DHT22;26951;47.338;9.196;2023-06-14T08:42:30;27.20;17.20
41220;DHT22;26951;47.338;9.196;2023-06-14T08:45:15;27.00;16.10
41220;DHT22;26951;47.338;9.196;2023-06-14T08:47:59;27.00;17.80
41220;DHT22;26951;47.338;9.196;2023-06-14T08:50:43;26.70;17.50
41220;DHT22;26951;47.338;9.196;2023-06-14T08:53:31;26.70;17.70
41220;DHT22;26951;47.338;9.196;2023-06-14T08:56:16;26.60;17.90
41220;DHT22;26951;47.338;9.196;2023-06-14T08:59:00;26.50;17.90
41220;DHT22;26951;47.338;9.196;2023-06-14T09:01:54;26.30;17.40
41220;DHT22;26951;47.338;9.196;2023-06-14T09:04:41;26.30;18.20
41220;DHT22;26951;47.338;9.196;2023-06-14T09:07:25;26.20;17.30
41220;DHT22;26951;47.338;9.196;2023-06-14T09:10:14;26.20;17.90
41220;DHT22;26951;47.338;9.196;2023-06-14T09:13:01;26.10;17.40
41220;DHT22;26951;47.338;9.196;2023-06-14T09:15:45;25.90;18.00
41220;DHT22;26951;47.338;9.196;2023-06-14T09:18:35;25.70;17.90
41220;DHT22;26951;47.338;9.196;2023-06-14T09:21:19;25.50;19.20
41220;DHT22;26951;47.338;9.196;2023-06-14T09:24:04;25.50;18.50
41220;DHT22;26951;47.338;9.196;2023-06-14T09:26:51;25.40;17.60
41220;DHT22;26951;47.338;9.196;2023-06-14T09:29:35;25.40;18.10
41220;DHT22;26951;47.338;9.196;2023-06-14T09:32:21;25.40;17.10
41220;DHT22;26951;47.338;9.196;2023-06-14T09:35:08;25.30;15.40
41220;DHT22;26951;47.338;9.196;2023-06-14T09:37:55;25.20;16.30
41220;DHT22;26951;47.338;9.196;2023-06-14T09:40:39;25.10;17.40
41220;DHT22;26951;47.338;9.196;2023-06-14T09:43:24;24.90;16.60
41220;DHT22;26951;47.338;9.196;2023-06-14T09:46:11;24.80;17.30
41220;DHT22;26951;47.338;9.196;2023-06-14T09:48:59;24.70;17.30
41220;DHT22;26951;47.338;9.196;2023-06-14T09:51:45;24.60;17.50
41220;DHT22;26951;47.338;9.196;2023-06-14T09:54:30;24.60;19.10
41220;DHT22;26951;47.338;9.196;2023-06-14T09:57:21;24.70;17.70
41220;DHT22;26951;47.338;9.196;2023-06-14T10:00:06;24.60;16.70
41220;DHT22;26951;47.338;9.196;2023-06-14T10:03:00;24.60;16.90
41220;DHT22;26951;47.338;9.196;2023-06-14T10:05:46;24.60;18.20
41220;DHT22;26951;47.338;9.196;2023-06-14T10:08:31;24.60;19.70
41220;DHT22;26951;47.338;9.196;2023-06-14T10:11:18;24.50;16.60
41220;DHT22;26951;47.338;9.196;2023-06-14T10:14:05;24.50;18.00
41220;DHT22;26951;47.338;9.196;2023-06-14T10:17:00;24.60;18.90
41220;DHT22;26951;47.338;9.196;2023-06-14T10:19:55;24.70;18.80
41220;DHT22;26951;47.338;9.196;2023-06-14T10:22:47;24.70;18.30
41220;DHT22;26951;47.338;9.196;2023-06-14T10:25:50;24.70;17.80
41220;DHT22;26951;47.338;9.196;2023-06-14T10:28:38;24.80;18.30
41220;DHT22;26951;47.338;9.196;2023-06-14T10:31:22;24.80;18.60
41220;DHT22;26951;47.338;9.196;2023-06-14T10:34:06;24.80;18.70
41220;DHT22;26951;47.338;9.196;2023-06-14T10:37:07;24.80;18.40
41220;DHT22;26951;47.338;9.196;2023-06-14T10:39:51;24.80;15.90
41220;DHT22;26951;47.338;9.196;2023-06-14T10:42:37;24.80;18.00
41220;DHT22;26951;47.338;9.196;2023-06-14T10:45:21;24.80;17.40
41220;DHT22;26951;47.338;9.196;2023-06-14T10:48:05;24.80;18.50
41220;DHT22;26951;47.338;9.196;2023-06-14T10:50:49;24.90;18.20
41220;DHT22;26951;47.338;9.196;2023-06-14T10:53:43;25.00;18.30
41220;DHT22;26951;47.338;9.196;2023-06-14T10:56:29;25.00;16.40
41220;DHT22;26951;47.338;9.196;2023-06-14T10:59:15;25.00;18.00
41220;DHT22;26951;47.338;9.196;2023-06-14T11:04:48;25.00;16.60
41220;DHT22;26951;47.338;9.196;2023-06-14T11:07:48;25.10;16.20
41220;DHT22;26951;47.338;9.196;2023-06-14T11:10:44;25.00;16.90
41220;DHT22;26951;47.338;9.196;2023-06-14T11:13:31;25.00;17.40
41220;DHT22;26951;47.338;9.196;2023-06-14T11:16:17;24.90;17.20
41220;DHT22;26951;47.338;9.196;2023-06-14T11:19:02;24.90;18.20
41220;DHT22;26951;47.338;9.196;2023-06-14T11:21:48;25.00;19.80
41220;DHT22;26951;47.338;9.196;2023-06-14T11:24:33;25.00;18.00
41220;DHT22;26951;47.338;9.196;2023-06-14T11:27:17;25.10;17.10
41220;DHT22;26951;47.338;9.196;2023-06-14T11:30:01;25.10;17.00
41220;DHT22;26951;47.338;9.196;2023-06-14T11:32:47;25.10;18.00
41220;DHT22;26951;47.338;9.196;2023-06-14T11:35:31;25.00;18.10
41220;DHT22;26951;47.338;9.196;2023-06-14T11:38:17;25.00;19.60
41220;DHT22;26951;47.338;9.196;2023-06-14T11:41:01;25.00;18.20
41220;DHT22;26951;47.338;9.196;2023-06-14T11:43:45;25.10;18.50
41220;DHT22;26951;47.338;9.196;2023-06-14T11:46:29;25.30;20.40
41220;DHT22;26951;47.338;9.196;2023-06-14T11:49:14;25.30;18.20
41220;DHT22;26951;47.338;9.196;2023-06-14T11:51:58;25.40;19.80
41220;DHT22;26951;47.338;9.196;2023-06-14T11:54:42;25.50;18.50
41220;DHT22;26951;47.338;9.196;2023-06-14T11:57:26;25.60;18.70
41220;DHT22;26951;47.338;9.196;2023-06-14T12:00:11;25.80;18.10
41220;DHT22;26951;47.338;9.196;2023-06-14T12:02:56;25.90;16.80
41220;DHT22;26951;47.338;9.196;2023-06-14T12:05:41;25.90;17.50
41220;DHT22;26951;47.338;9.196;2023-06-14T12:08:32;25.90;17.20
41220;DHT22;26951;47.338;9.196;2023-06-14T12:11:22;25.80;17.40
41220;DHT22;26951;47.338;9.196;2023-06-14T12:14:08;25.70;16.50
41220;DHT22;26951;47.338;9.196;2023-06-14T12:17:04;25.70;17.30
41220;DHT22;26951;47.338;9.196;2023-06-14T12:19:49;25.60;16.70
41220;DHT22;26951;47.338;9.196;2023-06-14T12:22:34;25.50;16.50
41220;DHT22;26951;47.338;9.196;2023-06-14T12:25:32;25.60;18.20
41220;DHT22;26951;47.338;9.196;2023-06-14T12:28:17;25.60;17.00
41220;DHT22;26951;47.338;9.196;2023-06-14T12:31:01;25.60;16.80
41220;DHT22;26951;47.338;9.196;2023-06-14T12:33:46;25.50;16.40
41220;DHT22;26951;47.338;9.196;2023-06-14T12:36:32;25.50;16.00
41220;DHT22;26951;47.338;9.196;2023-06-14T12:39:17;25.50;17.20
41220;DHT22;26951;47.338;9.196;2023-06-14T12:42:02;25.50;17.60
41220;DHT22;26951;47.338;9.196;2023-06-14T12:44:48;25.60;16.50
41220;DHT22;26951;47.338;9.196;2023-06-14T12:47:32;25.60;16.30
41220;DHT22;26951;47.338;9.196;2023-06-14T12:50:16;25.60;14.00
41220;DHT22;26951;47.338;9.196;2023-06-14T12:53:00;25.50;16.10
41220;DHT22;26951;47.338;9.196;2023-06-14T12:55:44;25.50;16.80
41220;DHT22;26951;47.338;9.196;2023-06-14T12:58:28;25.50;15.80
41220;DHT22;26951;47.338;9.196;2023-06-14T13:01:12;25.50;15.30
41220;DHT22;26951;47.338;9.196;2023-06-14T13:03:57;25.50;15.00
41220;DHT22;26951;47.338;9.196;2023-06-14T13:06:41;25.50;15.80
41220;DHT22;26951;47.338;9.196;2023-06-14T13:09:25;25.50;15.90
41220;DHT22;26951;47.338;9.196;2023-06-14T13:12:10;25.50;16.50
41220;DHT22;26951;47.338;9.196;2023-06-14T13:15:07;25.60;16.70
41220;DHT22;26951;47.338;9.196;2023-06-14T13:17:51;25.70;15.00
41220;DHT22;26951;47.338;9.196;2023-06-14T13:20:36;25.60;15.10
41220;DHT22;26951;47.338;9.196;2023-06-14T13:23:20;25.60;15.80
41220;DHT22;26951;47.338;9.196;2023-06-14T13:26:04;25.60;17.40
41220;DHT22;26951;47.338;9.196;2023-06-14T13:28:48;25.50;15.50
41220;DHT22;26951;47.338;9.196;2023-06-14T13:31:32;25.50;14.30
41220;DHT22;26951;47.338;9.196;2023-06-14T13:34:17;25.30;13.60
41220;DHT22;26951;47.338;9.196;2023-06-14T13:37:01;25.30;15.70
41220;DHT22;26951;47.338;9.196;2023-06-14T13:39:46;25.40;15.90
41220;DHT22;26951;47.338;9.196;2023-06-14T13:42:30;25.40;14.90
41220;DHT22;26951;47.338;9.196;2023-06-14T13:45:16;25.40;15.90
41220;DHT22;26951;47.338;9.196;2023-06-14T13:47:59;25.60;15.90
41220;DHT22;26951;47.338;9.196;2023-06-14T13:50:44;25.70;15.10
41220;DHT22;26951;47.338;9.196;2023-06-14T13:53:30;25.80;14.80
41220;DHT22;26951;47.338;9.196;2023-06-14T13:56:15;25.80;15.30
41220;DHT22;26951;47.338;9.196;2023-06-14T13:58:59;25.80;16.40
41220;DHT22;26951;47.338;9.196;2023-06-14T14:01:44;25.90;15.80
41220;DHT22;26951;47.338;9.196;2023-06-14T14:04:28;25.90;15.50
41220;DHT22;26951;47.338;9.196;2023-06-14T14:07:12;25.80;15.00
41220;DHT22;26951;47.338;9.196;2023-06-14T14:09:56;25.70;15.40
41220;DHT22;26951;47.338;9.196;2023-06-14T14:12:41;25.80;15.70
41220;DHT22;26951;47.338;9.196;2023-06-14T14:15:25;25.90;15.00
41220;DHT22;26951;47.338;9.196;2023-06-14T14:18:10;25.80;14.00
41220;DHT22;26951;47.338;9.196;2023-06-14T14:20:54;25.80;15.50
41220;DHT22;26951;47.338;9.196;2023-06-14T14:23:39;25.80;13.90
41220;DHT22;26951;47.338;9.196;2023-06-14T14:26:23;25.70;13.70
41220;DHT22;26951;47.338;9.196;2023-06-14T14:29:08;25.80;15.00
41220;DHT22;26951;47.338;9.196;2023-06-14T14:31:55;25.80;14.30
41220;DHT22;26951;47.338;9.196;2023-06-14T14:34:40;25.70;15.20
41220;DHT22;26951;47.338;9.196;2023-06-14T14:37:24;25.60;14.90
41220;DHT22;26951;47.338;9.196;2023-06-14T14:40:08;25.60;15.30
41220;DHT22;26951;47.338;9.196;2023-06-14T14:42:54;25.60;14.30
41220;DHT22;26951;47.338;9.196;2023-06-14T14:45:38;25.60;15.60
41220;DHT22;26951;47.338;9.196;2023-06-14T14:48:22;25.60;14.40
41220;DHT22;26951;47.338;9.196;2023-06-14T14:51:06;25.50;15.10
41220;DHT22;26951;47.338;9.196;2023-06-14T14:53:50;25.50;14.00
41220;DHT22;26951;47.338;9.196;2023-06-14T14:56:35;25.60;16.50
41220;DHT22;26951;47.338;9.196;2023-06-14T14:59:21;25.50;15.00
41220;DHT22;26951;47.338;9.196;2023-06-14T15:02:08;25.50;14.80
41220;DHT22;26951;47.338;9.196;2023-06-14T15:04:52;25.50;15.30
41220;DHT22;26951;47.338;9.196;2023-06-14T15:07:38;25.50;16.10
41220;DHT22;26951;47.338;9.196;2023-06-14T15:10:23;25.50;15.30
41220;DHT22;26951;47.338;9.196;2023-06-14T15:13:08;25.50;15.70
41220;DHT22;26951;47.338;9.196;2023-06-14T15:15:52;25.50;14.60
41220;DHT22;26951;47.338;9.196;2023-06-14T15:18:36;25.40;13.80
41220;DHT22;26951;47.338;9.196;2023-06-14T15:21:20;25.30;17.00
41220;DHT22;26951;47.338;9.196;2023-06-14T15:24:06;25.30;17.30
41220;DHT22;26951;47.338;9.196;2023-06-14T15:26:50;25.30;14.90
41220;DHT22;26951;47.338;9.196;2023-06-14T15:29:35;25.20;15.10
41220;DHT22;26951;47.338;9.196;2023-06-14T15:32:19;25.30;15.30
41220;DHT22;26951;47.338;9.196;2023-06-14T15:35:03;25.30;13.70
41220;DHT22;26951;47.338;9.196;2023-06-14T15:37:48;25.20;14.80
41220;DHT22;26951;47.338;9.196;2023-06-14T15:40:32;25.00;15.90
41220;DHT22;26951;47.338;9.196;2023-06-14T15:43:16;25.00;15.10
41220;DHT22;26951;47.338;9.196;2023-06-14T15:46:00;25.00;15.90
41220;DHT22;26951;47.338;9.196;2023-06-14T15:48:44;25.00;15.50
41220;DHT22;26951;47.338;9.196;2023-06-14T15:51:28;25.00;15.40
41220;DHT22;26951;47.338;9.196;2023-06-14T15:54:12;25.00;15.10
41220;DHT22;26951;47.338;9.196;2023-06-14T15:56:57;24.90;15.20
41220;DHT22;26951;47.338;9.196;2023-06-14T15:59:41;24.80;14.90
41220;DHT22;26951;47.338;9.196;2023-06-14T16:02:25;24.80;15.20
41220;DHT22;26951;47.338;9.196;2023-06-14T16:05:13;24.80;14.90
41220;DHT22;26951;47.338;9.196;2023-06-14T16:07:57;24.80;14.50
41220;DHT22;26951;47.338;9.196;2023-06-14T16:10:41;24.80;15.70
41220;DHT22;26951;47.338;9.196;2023-06-14T16:13:25;24.70;14.90
41220;DHT22;26951;47.338;9.196;2023-06-14T16:16:09;24.70;14.50
41220;DHT22;26951;47.338;9.196;2023-06-14T16:18:54;24.60;14.80
41220;DHT22;26951;47.338;9.196;2023-06-14T16:21:38;24.60;15.10
41220;DHT22;26951;47.338;9.196;2023-06-14T16:24:22;24.60;14.80
41220;DHT22;26951;47.338;9.196;2023-06-14T16:27:06;24.60;15.60
41220;DHT22;26951;47.338;9.196;2023-06-14T16:29:52;24.60;17.40
41220;DHT22;26951;47.338;9.196;2023-06-14T16:32:36;24.50;15.70
41220;DHT22;26951;47.338;9.196;2023-06-14T16:35:20;24.60;15.70
41220;DHT22;26951;47.338;9.196;2023-06-14T16:38:04;24.50;15.50
41220;DHT22;26951;47.338;9.196;2023-06-14T16:40:48;24.40;16.30
41220;DHT22;26951;47.338;9.196;2023-06-14T16:43:32;24.40;16.00
41220;DHT22;26951;47.338;9.196;2023-06-14T16:46:28;24.40;15.30
41220;DHT22;26951;47.338;9.196;2023-06-14T16:49:13;24.40;15.60
41220;DHT22;26951;47.338;9.196;2023-06-14T16:51:57;24.30;15.70
41220;DHT22;26951;47.338;9.196;2023-06-14T16:54:44;24.20;15.20
41220;DHT22;26951;47.338;9.196;2023-06-14T16:57:29;24.20;14.60
41220;DHT22;26951;47.338;9.196;2023-06-14T17:00:13;24.10;15.30
41220;DHT22;26951;47.338;9.196;2023-06-14T17:02:57;24.00;15.00
41220;DHT22;26951;47.338;9.196;2023-06-14T17:05:57;23.80;15.10
41220;DHT22;26951;47.338;9.196;2023-06-14T17:08:42;23.70;15.50
41220;DHT22;26951;47.338;9.196;2023-06-14T17:11:26;23.60;15.70
41220;DHT22;26951;47.338;9.196;2023-06-14T17:14:14;23.50;16.00
41220;DHT22;26951;47.338;9.196;2023-06-14T17:17:01;23.40;16.40
41220;DHT22;26951;47.338;9.196;2023-06-14T17:19:46;23.30;16.70
41220;DHT22;26951;47.338;9.196;2023-06-14T17:22:30;23.30;16.80
41220;DHT22;26951;47.338;9.196;2023-06-14T17:25:15;23.10;16.60
41220;DHT22;26951;47.338;9.196;2023-06-14T17:27:59;23.10;16.80
41220;DHT22;26951;47.338;9.196;2023-06-14T17:30:43;22.90;16.80
41220;DHT22;26951;47.338;9.196;2023-06-14T17:33:28;22.80;17.10